Alpena, Michigan
Current Conditions -  °F | °C
As of 2:54 PM on Thursday 30 Oct 2014 (Local Time) from KAPN Reporting Station
Light Rain Light Rain  
Wind Chill:   Ceiling: 5000
Heat Index:   Visibility: 10mi
Dew Point:   Wind: 5mph
Humidity: 76%   Direction: 190°S
Pressure: 30.04"   Gusts: NA
Location:  45.06°N, 83.44°W
Report Text: KAPN 301854Z AUTO 19004KT 10SM -RA SCT027 OVC050 06/02 A3004 RMK AO2 RAB45 SLP177 P0000 T00610022 TSNO
Loading
Personal Weather Stations






























Interactive Weather Map
Tropical Storm Tracking
New forecast layout! Learn more

10-Day Weather Forecast

Advertisements
Track Severe Weather on mobile